To NAV CANADA Home Page Login to a new session Search on AWWS site Feedback and Comments Disclaimer Vers la page française équivalente Tips FAQ What's new on the site To the Forecasts and Observations / NOTAM section To "File a Flight Plan" website Publications and other links Update of the User's profile FIC Telephone Numbers My Weather Data Folder Route Weather Data Regional Weather Data Local Weather Data To the Forecasts and Observations / NOTAM section
Request Generated 06/30/2015 at 14:24:49 UTC . Weather information available at that time is displayed.

METAR/TAF

MONCTON/GREATER MONCTON INTL/NB    

METAR CYQM 301400Z 23012G18KT 15SM FEW028 SCT120 SCT260 20/13 A2994
RMK CU2AC1CI1 CI TR SLP140 DENSITY ALT 800FT=
METAR CYQM 301300Z 25007KT 15SM FEW018 FEW120 18/13 A2994 RMK SC1AC1
SLP140 DENSITY ALT 600FT=
METAR CYQM 301200Z CCA 24008KT 15SM FEW010 SCT090 16/13 A2994 RMK
SC2AC1 SLP138 DENSITY ALT 300FT=
METAR CYQM 301200Z 24008KT 15SM FEW010 SCT090 16/13 A2994 RMK SC2AC1
SLP138 DENSITY ALT 300FT=

TAF CYQM 301143Z 3012/0112 23008KT P6SM BKN006 OVC030 TEMPO 3012/3013
6SM BR SCT004 BKN030
FM301300 19006KT P6SM BKN050 TEMPO 3013/3016 SCT050
BECMG 3014/3016 24012KT
FM010000 23005KT P6SM FEW050 PROB30 0107/0111 1/2SM FG VV002
RMK NXT FCST BY 301800Z=
Your time UTC time
Weather data provided by Environment Canada and NAV CANADA